createdAt,value
2018-06-29T00:00:03.481Z,63.94
2018-06-29T00:02:32.166Z,63.31
2018-06-29T00:05:00.693Z,62.49
2018-06-29T00:07:29.195Z,61.66
2018-06-29T00:09:57.696Z,60.72
2018-06-29T00:12:26.211Z,60.58
2018-06-29T00:14:54.752Z,59.53
2018-06-29T00:17:23.234Z,59.10
2018-06-29T00:19:51.785Z,58.32
2018-06-29T00:22:20.307Z,58.29
2018-06-29T00:24:48.814Z,58.12
2018-06-29T00:27:17.381Z,56.81
2018-06-29T00:29:45.888Z,56.80
2018-06-29T00:32:14.466Z,56.35
2018-06-29T00:34:43.130Z,55.33
2018-06-29T00:37:11.715Z,55.27
2018-06-29T00:39:40.215Z,54.74
2018-06-29T00:42:08.794Z,53.71
2018-06-29T00:44:37.356Z,53.05
2018-06-29T00:47:06.134Z,52.63
2018-06-29T00:49:34.665Z,53.00
2018-06-29T00:52:03.177Z,52.43
2018-06-29T00:54:31.724Z,52.45
2018-06-29T00:57:00.271Z,52.65
2018-06-29T00:59:28.854Z,52.13
2018-06-29T01:01:57.437Z,52.56
2018-06-29T01:04:26.127Z,51.73
2018-06-29T01:06:54.639Z,51.95
2018-06-29T01:09:23.131Z,51.75
2018-06-29T01:11:51.665Z,52.03
2018-06-29T01:14:20.186Z,51.44
2018-06-29T01:16:48.784Z,51.25
2018-06-29T01:19:17.372Z,51.00
2018-06-29T01:21:45.946Z,50.83
2018-06-29T01:24:14.683Z,49.07
2018-06-29T01:26:43.190Z,49.34
2018-06-29T01:29:11.673Z,48.57
2018-06-29T01:31:40.243Z,49.13
2018-06-29T01:34:08.871Z,47.30
2018-06-29T01:36:37.447Z,47.41
2018-06-29T01:39:07.916Z,47.60
2018-06-29T01:41:36.653Z,47.07
2018-06-29T01:44:05.242Z,47.25
2018-06-29T01:46:33.801Z,46.59
2018-06-29T01:49:02.342Z,46.44
2018-06-29T01:51:30.897Z,46.90
2018-06-29T01:53:59.518Z,47.08
2018-06-29T01:56:28.103Z,47.84
2018-06-29T01:58:56.689Z,47.81
2018-06-29T02:01:25.268Z,48.98
2018-06-29T02:03:53.758Z,49.11
2018-06-29T02:06:22.271Z,49.10
2018-06-29T02:08:50.840Z,49.16
2018-06-29T02:11:19.419Z,49.30
2018-06-29T02:13:47.930Z,48.35
2018-06-29T02:16:16.444Z,48.30
2018-06-29T02:18:44.988Z,48.33
2018-06-29T02:21:13.571Z,48.36
2018-06-29T02:23:42.090Z,48.94
2018-06-29T02:26:10.700Z,49.42
2018-06-29T02:28:39.300Z,49.48
2018-06-29T02:31:07.811Z,49.35
2018-06-29T02:33:36.323Z,49.45
2018-06-29T02:36:04.858Z,49.88
2018-06-29T02:38:33.433Z,50.36
2018-06-29T02:41:02.072Z,50.51
2018-06-29T02:43:30.666Z,50.54
2018-06-29T02:45:59.275Z,50.93
2018-06-29T02:48:27.884Z,50.94
2018-06-29T02:50:56.518Z,51.08
2018-06-29T02:53:25.151Z,51.44
2018-06-29T02:55:53.743Z,51.71
2018-06-29T02:58:22.370Z,51.44
2018-06-29T03:00:50.951Z,51.88
2018-06-29T03:03:19.479Z,51.88
2018-06-29T03:05:48.117Z,52.01
2018-06-29T03:08:16.702Z,52.13
2018-06-29T03:10:45.231Z,52.83
2018-06-29T03:13:13.807Z,52.50
2018-06-29T03:15:42.447Z,52.68
2018-06-29T03:18:11.032Z,52.75
2018-06-29T03:20:39.720Z,53.25
2018-06-29T03:23:08.299Z,52.76
2018-06-29T03:25:36.827Z,53.01
2018-06-29T03:28:05.521Z,53.23
2018-06-29T03:30:34.051Z,52.72
2018-06-29T03:33:02.614Z,53.21
2018-06-29T03:35:31.059Z,53.24
2018-06-29T03:37:59.695Z,53.47
2018-06-29T03:40:28.337Z,52.95
2018-06-29T03:42:56.786Z,53.28
2018-06-29T03:45:25.344Z,53.29
2018-06-29T03:47:53.838Z,53.35
2018-06-29T03:50:22.331Z,53.78
2018-06-29T03:52:50.827Z,53.61
2018-06-29T03:55:19.383Z,53.99
2018-06-29T03:57:48.011Z,53.29
2018-06-29T04:00:16.540Z,54.08
2018-06-29T04:02:45.206Z,53.46
2018-06-29T04:05:13.801Z,53.88
2018-06-29T04:07:42.330Z,53.74
2018-06-29T04:10:10.913Z,53.77
2018-06-29T04:12:39.393Z,53.23
2018-06-29T04:15:08.232Z,53.40
2018-06-29T04:17:36.779Z,53.33
2018-06-29T04:20:06.110Z,53.62
2018-06-29T04:22:34.806Z,53.19
2018-06-29T04:25:04.894Z,53.14
2018-06-29T04:27:34.224Z,53.58
2018-06-29T04:30:03.518Z,53.07
2018-06-29T04:32:32.025Z,52.86
2018-06-29T04:35:00.645Z,52.63
2018-06-29T04:37:29.267Z,52.92
2018-06-29T04:39:58.546Z,52.33
2018-06-29T04:42:27.095Z,51.89
2018-06-29T04:44:55.734Z,52.08
2018-06-29T04:47:24.314Z,51.25
2018-06-29T04:49:52.916Z,51.08
2018-06-29T04:52:21.480Z,51.49
2018-06-29T04:54:49.978Z,50.79
2018-06-29T04:57:18.515Z,50.33
2018-06-29T04:59:47.107Z,49.75
2018-06-29T05:02:15.659Z,49.90
2018-06-29T05:04:44.189Z,48.66
2018-06-29T05:07:12.773Z,48.95
2018-06-29T05:09:41.359Z,48.71
2018-06-29T05:12:09.941Z,49.04
2018-06-29T05:14:38.569Z,48.79
2018-06-29T05:17:07.309Z,48.68
2018-06-29T05:19:36.404Z,48.45
2018-06-29T05:22:04.971Z,48.16
2018-06-29T05:24:33.572Z,47.85
2018-06-29T05:27:02.070Z,47.86
2018-06-29T05:29:30.633Z,48.24
2018-06-29T05:31:59.279Z,47.36
2018-06-29T05:34:27.872Z,47.56
2018-06-29T05:36:56.367Z,47.55
2018-06-29T05:39:24.967Z,47.40
2018-06-29T05:41:53.548Z,47.97
2018-06-29T05:44:22.052Z,47.32
2018-06-29T05:46:50.670Z,47.54
2018-06-29T05:49:19.361Z,46.87
2018-06-29T05:51:47.805Z,46.38
2018-06-29T05:54:16.403Z,47.29
2018-06-29T05:56:44.915Z,47.01
2018-06-29T05:59:13.441Z,46.62
2018-06-29T06:01:41.983Z,46.63
2018-06-29T06:04:10.480Z,46.81
2018-06-29T06:06:39.070Z,46.24
2018-06-29T06:09:09.650Z,45.90
2018-06-29T06:11:38.284Z,46.21
2018-06-29T06:14:07.105Z,45.62
2018-06-29T06:16:35.859Z,45.92
2018-06-29T06:19:19.100Z,45.82
2018-06-29T06:21:47.620Z,46.34
2018-06-29T06:24:16.353Z,46.31
2018-06-29T06:26:44.911Z,45.32
2018-06-29T06:29:13.520Z,45.51
2018-06-29T06:31:42.051Z,44.95
2018-06-29T06:34:10.582Z,46.09
2018-06-29T06:36:39.165Z,46.02
2018-06-29T06:39:10.380Z,44.86
2018-06-29T06:41:38.937Z,44.71
2018-06-29T06:44:07.529Z,45.00
2018-06-29T06:46:36.076Z,45.15
2018-06-29T06:49:04.656Z,44.93
2018-06-29T06:51:33.325Z,44.75
2018-06-29T06:54:01.910Z,44.47
2018-06-29T06:56:30.492Z,45.63
2018-06-29T06:58:58.995Z,45.16
2018-06-29T07:01:27.500Z,44.94
2018-06-29T07:03:55.994Z,44.90
2018-06-29T07:06:24.502Z,44.44
2018-06-29T07:08:53.013Z,45.17
2018-06-29T07:11:21.734Z,44.73
2018-06-29T07:13:50.572Z,44.86
2018-06-29T07:16:19.105Z,44.88
2018-06-29T07:18:47.713Z,45.07
2018-06-29T07:21:16.321Z,44.70
2018-06-29T07:23:45.009Z,44.22
2018-06-29T07:26:13.667Z,44.22
2018-06-29T07:28:42.274Z,44.28
2018-06-29T07:31:10.921Z,45.04
2018-06-29T07:33:39.499Z,43.74
2018-06-29T07:36:08.075Z,43.86
2018-06-29T07:38:36.738Z,43.44
2018-06-29T07:41:05.392Z,44.26
2018-06-29T07:43:34.039Z,44.42
2018-06-29T07:46:02.591Z,43.64
2018-06-29T07:48:31.242Z,42.14
2018-06-29T07:50:59.928Z,42.27
2018-06-29T07:53:28.431Z,42.87
2018-06-29T07:55:56.935Z,43.09
2018-06-29T07:58:25.729Z,42.08
2018-06-29T08:00:58.356Z,42.58
2018-06-29T08:03:27.075Z,41.74
2018-06-29T08:05:55.597Z,42.33
2018-06-29T08:08:24.103Z,41.40
2018-06-29T08:10:52.687Z,41.94
2018-06-29T08:13:21.269Z,42.00
2018-06-29T08:15:50.058Z,41.36
2018-06-29T08:18:18.567Z,41.39
2018-06-29T08:20:47.116Z,42.12
2018-06-29T08:23:15.847Z,42.12
2018-06-29T08:25:44.491Z,40.80
2018-06-29T08:28:13.087Z,41.99
2018-06-29T08:30:41.699Z,40.59
2018-06-29T08:33:10.291Z,40.97
2018-06-29T08:35:38.929Z,42.09
2018-06-29T08:38:07.516Z,40.90
2018-06-29T08:40:36.095Z,40.26
2018-06-29T08:43:04.776Z,40.20
2018-06-29T08:45:33.494Z,40.90
2018-06-29T08:48:02.061Z,40.39
2018-06-29T08:50:30.651Z,41.76
2018-06-29T08:52:59.287Z,39.85
2018-06-29T08:55:27.793Z,40.54
2018-06-29T08:57:56.376Z,39.86
2018-06-29T09:00:24.978Z,39.77
2018-06-29T09:02:53.540Z,39.49
2018-06-29T09:05:22.064Z,39.08
2018-06-29T09:07:50.709Z,39.20
2018-06-29T09:10:19.232Z,39.57
2018-06-29T09:12:47.872Z,40.57
2018-06-29T09:15:16.561Z,37.94
2018-06-29T09:17:45.087Z,37.73
2018-06-29T09:20:13.724Z,37.82
2018-06-29T09:22:42.291Z,37.20
2018-06-29T09:25:10.807Z,37.15
2018-06-29T09:27:39.475Z,37.77
2018-06-29T09:30:08.087Z,38.07
2018-06-29T09:32:36.643Z,37.26
2018-06-29T09:35:05.475Z,37.70
2018-06-29T09:37:34.123Z,38.06
2018-06-29T09:40:03.006Z,38.76
2018-06-29T09:42:31.590Z,37.04
2018-06-29T09:45:00.057Z,36.66
2018-06-29T09:47:28.907Z,37.16
2018-06-29T09:49:57.559Z,37.29
2018-06-29T09:52:26.166Z,38.00
2018-06-29T09:54:54.808Z,37.73
2018-06-29T09:57:23.328Z,37.57
2018-06-29T09:59:51.910Z,37.06
2018-06-29T10:02:20.552Z,37.97
2018-06-29T10:04:49.145Z,37.55
2018-06-29T10:07:17.645Z,37.88
2018-06-29T10:09:46.209Z,37.56
2018-06-29T10:12:14.847Z,36.60
2018-06-29T10:14:43.573Z,37.18
2018-06-29T10:17:12.075Z,36.89
2018-06-29T10:19:40.888Z,37.85
2018-06-29T10:22:09.418Z,38.27
2018-06-29T10:24:37.994Z,36.97
2018-06-29T10:27:06.519Z,37.18
2018-06-29T10:29:35.016Z,36.04
2018-06-29T10:32:03.563Z,35.93
2018-06-29T10:34:32.141Z,36.03
2018-06-29T10:37:00.655Z,35.36
2018-06-29T10:39:29.300Z,35.74
2018-06-29T10:41:57.986Z,35.41
2018-06-29T10:44:26.569Z,34.22
2018-06-29T10:46:55.255Z,34.50
2018-06-29T10:49:23.944Z,33.80
2018-06-29T10:51:52.440Z,34.16
2018-06-29T10:54:20.931Z,34.00
2018-06-29T10:56:49.480Z,32.22
2018-06-29T10:59:17.974Z,31.10
2018-06-29T11:01:46.454Z,31.13
2018-06-29T11:04:14.979Z,31.99
2018-06-29T11:06:43.559Z,31.66
2018-06-29T11:09:12.135Z,31.55
2018-06-29T11:11:40.735Z,29.88
2018-06-29T11:14:09.618Z,31.12
2018-06-29T11:16:38.187Z,30.27
2018-06-29T11:19:06.729Z,31.97
2018-06-29T11:21:35.273Z,29.70
2018-06-29T11:24:03.896Z,29.84
2018-06-29T11:26:32.476Z,30.19
2018-06-29T11:29:01.059Z,30.85
2018-06-29T11:31:29.643Z,30.80
2018-06-29T11:33:58.327Z,31.30
2018-06-29T11:36:26.910Z,31.21
2018-06-29T11:38:55.493Z,31.23
2018-06-29T11:41:24.027Z,29.83
2018-06-29T11:43:52.663Z,29.37
2018-06-29T11:46:21.159Z,28.93
2018-06-29T11:48:49.783Z,29.37
2018-06-29T11:51:18.410Z,29.23
2018-06-29T11:53:46.989Z,27.79
2018-06-29T11:56:15.592Z,28.41
2018-06-29T11:58:44.085Z,29.66
2018-06-29T12:01:12.727Z,28.26
2018-06-29T12:03:41.322Z,29.84
2018-06-29T12:06:09.916Z,30.06
2018-06-29T12:08:38.427Z,28.07
2018-06-29T12:11:07.443Z,27.71
2018-06-29T12:13:36.028Z,27.49
2018-06-29T12:16:05.003Z,27.30
2018-06-29T12:18:33.590Z,28.70
2018-06-29T12:21:02.203Z,25.89
2018-06-29T12:23:30.788Z,26.76
2018-06-29T12:25:59.392Z,23.27
2018-06-29T12:28:27.979Z,24.87
2018-06-29T12:30:56.500Z,23.34
2018-06-29T12:33:25.020Z,23.55
2018-06-29T12:35:53.539Z,24.52
2018-06-29T12:38:22.031Z,26.13
2018-06-29T12:40:50.716Z,25.43
2018-06-29T12:43:19.465Z,26.71
2018-06-29T12:45:47.969Z,27.14
2018-06-29T12:48:16.475Z,25.70
2018-06-29T12:50:45.114Z,26.34
2018-06-29T12:53:13.575Z,24.59
2018-06-29T12:55:42.134Z,25.56
2018-06-29T12:58:10.654Z,26.42
2018-06-29T13:00:39.343Z,26.71
2018-06-29T13:03:07.868Z,27.24
2018-06-29T13:05:36.559Z,24.84
2018-06-29T13:08:05.089Z,25.00
2018-06-29T13:10:33.594Z,25.53
2018-06-29T13:13:02.104Z,26.67
2018-06-29T13:15:30.736Z,26.46
2018-06-29T13:17:59.237Z,24.50
2018-06-29T13:20:27.799Z,26.43
2018-06-29T13:22:56.383Z,24.90
2018-06-29T13:25:24.931Z,23.47
2018-06-29T13:27:53.422Z,25.07
2018-06-29T13:30:21.924Z,24.51
2018-06-29T13:32:50.423Z,24.27
2018-06-29T13:35:19.122Z,26.42
2018-06-29T13:37:47.663Z,26.42
2018-06-29T13:40:16.593Z,26.21
2018-06-29T13:42:45.303Z,25.51
2018-06-29T13:45:13.883Z,24.81
2018-06-29T13:47:42.453Z,23.40
2018-06-29T13:50:11.100Z,24.33
2018-06-29T13:52:39.785Z,26.08
2018-06-29T13:55:08.573Z,24.37
2018-06-29T13:57:37.244Z,26.06
2018-06-29T14:00:06.311Z,24.78
2018-06-29T14:02:34.913Z,23.53
2018-06-29T14:05:03.621Z,25.75
2018-06-29T14:07:32.163Z,24.77
2018-06-29T14:10:00.748Z,24.56
2018-06-29T14:12:29.317Z,26.59
2018-06-29T14:14:57.837Z,25.10
2018-06-29T14:17:26.433Z,24.53
2018-06-29T14:19:55.015Z,24.19
2018-06-29T14:22:23.503Z,24.92
2018-06-29T14:24:51.993Z,24.89
2018-06-29T14:27:20.501Z,24.04
2018-06-29T14:29:49.039Z,24.29
2018-06-29T14:32:17.549Z,23.85
2018-06-29T14:34:46.119Z,25.68
2018-06-29T14:37:14.687Z,25.68
2018-06-29T14:39:43.222Z,25.66
2018-06-29T14:42:11.806Z,25.23
2018-06-29T14:44:40.352Z,25.16
2018-06-29T14:47:08.900Z,25.66
2018-06-29T14:49:37.484Z,25.98
2018-06-29T14:52:06.020Z,27.45
2018-06-29T14:54:34.580Z,25.42
2018-06-29T14:57:03.145Z,25.25
2018-06-29T14:59:31.791Z,25.17
2018-06-29T15:02:00.383Z,26.23
2018-06-29T15:04:28.997Z,26.06
2018-06-29T15:06:57.581Z,26.20
2018-06-29T15:09:26.234Z,26.50
2018-06-29T15:11:54.846Z,26.54
2018-06-29T15:14:23.383Z,26.77
2018-06-29T15:16:52.013Z,25.38
2018-06-29T15:19:20.746Z,26.33
2018-06-29T15:21:49.331Z,25.97
2018-06-29T15:24:17.873Z,25.60
2018-06-29T15:26:46.446Z,26.43
2018-06-29T15:29:15.028Z,27.86
2018-06-29T15:31:43.818Z,26.65
2018-06-29T15:34:12.339Z,26.59
2018-06-29T15:36:40.984Z,26.17
2018-06-29T15:39:11.879Z,25.20
2018-06-29T15:41:40.619Z,25.57
2018-06-29T15:44:09.700Z,26.68
2018-06-29T15:46:38.386Z,26.10
2018-06-29T15:49:07.584Z,26.28
2018-06-29T15:51:36.304Z,26.64
2018-06-29T15:54:05.058Z,26.83
2018-06-29T15:56:33.697Z,24.82
2018-06-29T15:59:02.226Z,26.36
2018-06-29T16:01:30.771Z,25.87
2018-06-29T16:03:59.432Z,25.46
2018-06-29T16:06:28.176Z,26.86
2018-06-29T16:08:56.964Z,25.86
2018-06-29T16:11:25.648Z,24.79
2018-06-29T16:13:54.642Z,25.89
2018-06-29T16:16:23.246Z,25.77
2018-06-29T16:18:51.860Z,25.61
2018-06-29T16:21:20.512Z,24.81
2018-06-29T16:23:49.088Z,24.58
2018-06-29T16:26:18.163Z,25.88
2018-06-29T16:28:49.464Z,26.47
2018-06-29T16:31:21.278Z,25.31
2018-06-29T16:33:50.199Z,25.77
2018-06-29T16:36:19.325Z,26.58
2018-06-29T16:38:50.405Z,25.95
2018-06-29T16:41:18.954Z,26.31
2018-06-29T16:43:47.487Z,26.29
2018-06-29T16:46:16.004Z,26.43
2018-06-29T16:48:44.527Z,26.32
2018-06-29T16:51:13.078Z,26.96
2018-06-29T16:53:41.706Z,26.93
2018-06-29T16:56:10.279Z,26.58
2018-06-29T16:58:38.861Z,27.30
2018-06-29T17:01:07.550Z,26.55
2018-06-29T17:03:36.231Z,27.07
2018-06-29T17:06:04.815Z,26.65
2018-06-29T17:08:33.389Z,27.40
2018-06-29T17:11:01.922Z,27.21
2018-06-29T17:13:30.585Z,26.03
2018-06-29T17:15:59.145Z,26.85
2018-06-29T17:18:27.895Z,27.45
2018-06-29T17:20:56.547Z,26.50
2018-06-29T17:23:25.303Z,26.76
2018-06-29T17:25:53.783Z,26.82
2018-06-29T17:28:22.328Z,26.95
2018-06-29T17:30:50.853Z,27.81
2018-06-29T17:33:19.375Z,27.18
2018-06-29T17:35:48.014Z,27.93
2018-06-29T17:38:16.698Z,27.63
2018-06-29T17:40:45.254Z,27.22
2018-06-29T17:43:13.868Z,27.80
2018-06-29T17:45:42.551Z,26.84
2018-06-29T17:48:11.779Z,27.04
2018-06-29T17:50:40.334Z,27.46
2018-06-29T17:53:08.941Z,27.34
2018-06-29T17:55:37.475Z,27.97
2018-06-29T17:58:06.235Z,28.48
2018-06-29T18:00:34.764Z,27.96
2018-06-29T18:03:03.393Z,27.48
2018-06-29T18:05:32.069Z,28.15
2018-06-29T18:08:00.822Z,28.67
2018-06-29T18:10:29.326Z,28.67
2018-06-29T18:12:58.069Z,28.08
2018-06-29T18:15:26.568Z,28.44
2018-06-29T18:17:55.247Z,27.89
2018-06-29T18:20:23.836Z,28.79
2018-06-29T18:22:52.477Z,28.82
2018-06-29T18:25:21.181Z,29.17
2018-06-29T18:27:49.789Z,28.75
2018-06-29T18:30:18.291Z,28.69
2018-06-29T18:32:46.818Z,28.85
2018-06-29T18:35:15.640Z,29.00
2018-06-29T18:37:44.292Z,29.48
2018-06-29T18:40:12.931Z,29.03
2018-06-29T18:42:41.537Z,29.32
2018-06-29T18:45:10.075Z,29.40
2018-06-29T18:47:38.775Z,29.97
2018-06-29T18:50:07.649Z,29.90
2018-06-29T18:52:36.338Z,30.02
2018-06-29T18:55:05.121Z,30.62
2018-06-29T18:57:34.041Z,30.22
2018-06-29T19:00:02.630Z,30.20
2018-06-29T19:02:31.264Z,30.94
2018-06-29T19:04:59.819Z,30.91
2018-06-29T19:07:29.261Z,30.73
2018-06-29T19:09:57.908Z,31.27
2018-06-29T19:12:26.536Z,31.54
2018-06-29T19:14:55.019Z,31.04
2018-06-29T19:17:23.702Z,31.38
2018-06-29T19:19:52.255Z,31.80
2018-06-29T19:22:20.870Z,31.59
2018-06-29T19:24:49.370Z,31.67
2018-06-29T19:27:18.047Z,32.27
2018-06-29T19:29:46.690Z,32.23
2018-06-29T19:32:15.404Z,32.81
2018-06-29T19:34:44.090Z,32.98
2018-06-29T19:37:12.780Z,33.17
2018-06-29T19:39:41.380Z,33.44
2018-06-29T19:42:09.948Z,32.92
2018-06-29T19:44:38.623Z,33.72
2018-06-29T19:47:07.218Z,33.44
2018-06-29T19:49:35.839Z,34.13
2018-06-29T19:52:04.382Z,34.21
2018-06-29T19:54:32.919Z,34.62
2018-06-29T19:57:01.556Z,34.30
2018-06-29T19:59:30.059Z,34.84
2018-06-29T20:01:59.013Z,34.67
2018-06-29T20:04:27.692Z,35.63
2018-06-29T20:06:56.284Z,35.62
2018-06-29T20:09:24.868Z,35.88
2018-06-29T20:11:53.547Z,36.51
2018-06-29T20:14:22.075Z,36.82
2018-06-29T20:16:50.712Z,37.20
2018-06-29T20:19:21.650Z,37.63
2018-06-29T20:21:50.177Z,38.00
2018-06-29T20:24:18.816Z,38.49
2018-06-29T20:26:47.346Z,38.59
2018-06-29T20:29:15.892Z,39.14
2018-06-29T20:31:44.407Z,39.10
2018-06-29T20:34:12.941Z,39.66
2018-06-29T20:36:41.999Z,39.94
2018-06-29T20:39:11.952Z,40.50
2018-06-29T20:41:40.451Z,40.72
2018-06-29T20:44:09.367Z,40.97
2018-06-29T20:46:37.905Z,41.51
2018-06-29T20:49:06.537Z,41.71
2018-06-29T20:51:35.277Z,41.58
2018-06-29T20:54:04.167Z,42.11
2018-06-29T20:56:32.750Z,42.02
2018-06-29T20:59:01.316Z,42.45
2018-06-29T21:01:29.919Z,42.62
2018-06-29T21:03:58.538Z,43.25
2018-06-29T21:06:27.189Z,43.35
2018-06-29T21:08:55.970Z,43.34
2018-06-29T21:11:24.472Z,43.72
2018-06-29T21:13:53.083Z,43.71
2018-06-29T21:16:21.663Z,44.07
2018-06-29T21:18:50.198Z,44.59
2018-06-29T21:21:18.782Z,44.67
2018-06-29T21:23:47.469Z,44.66
2018-06-29T21:26:15.991Z,44.87
2018-06-29T21:28:44.597Z,44.80
2018-06-29T21:31:13.138Z,45.42
2018-06-29T21:33:41.798Z,45.37
2018-06-29T21:36:10.436Z,46.24
2018-06-29T21:38:39.374Z,45.90
2018-06-29T21:41:08.007Z,45.94
2018-06-29T21:43:36.679Z,45.84
2018-06-29T21:46:05.328Z,46.62
2018-06-29T21:48:33.851Z,46.70
2018-06-29T21:51:02.464Z,47.72
2018-06-29T21:53:31.101Z,46.85
2018-06-29T21:55:59.719Z,46.67
2018-06-29T21:58:28.344Z,47.81
2018-06-29T22:00:57.017Z,47.73
2018-06-29T22:03:25.698Z,47.48
2018-06-29T22:05:54.300Z,47.70
2018-06-29T22:08:22.865Z,47.82
2018-06-29T22:10:51.465Z,48.00
2018-06-29T22:13:20.149Z,48.34
2018-06-29T22:15:48.671Z,48.49
2018-06-29T22:18:17.314Z,48.39
2018-06-29T22:20:45.886Z,48.78
2018-06-29T22:23:14.422Z,48.46
2018-06-29T22:25:42.987Z,47.99
2018-06-29T22:28:11.543Z,48.71
2018-06-29T22:30:40.127Z,49.26
2018-06-29T22:33:08.703Z,49.20
2018-06-29T22:35:37.222Z,48.60
2018-06-29T22:38:05.775Z,49.21
2018-06-29T22:40:34.349Z,49.63
2018-06-29T22:43:02.941Z,49.49
2018-06-29T22:45:31.521Z,49.84
2018-06-29T22:48:00.060Z,49.92
2018-06-29T22:50:28.583Z,50.35
2018-06-29T22:52:57.077Z,50.57
2018-06-29T22:55:25.588Z,50.64
2018-06-29T22:57:54.114Z,50.27
2018-06-29T23:00:22.654Z,50.00
2018-06-29T23:02:51.219Z,50.60
2018-06-29T23:05:19.715Z,50.67
2018-06-29T23:07:48.311Z,50.45
2018-06-29T23:10:16.899Z,50.79
2018-06-29T23:12:45.523Z,50.70
2018-06-29T23:15:14.021Z,50.94
2018-06-29T23:17:42.535Z,50.96
2018-06-29T23:20:11.061Z,51.02
2018-06-29T23:22:39.573Z,50.50
2018-06-29T23:25:08.072Z,51.86
2018-06-29T23:27:36.623Z,51.67
2018-06-29T23:30:05.250Z,51.55
2018-06-29T23:32:33.819Z,51.87
2018-06-29T23:35:02.431Z,51.46
2018-06-29T23:37:31.044Z,51.64
2018-06-29T23:39:59.627Z,52.28
2018-06-29T23:42:28.210Z,52.08
2018-06-29T23:44:56.703Z,52.41
2018-06-29T23:47:25.320Z,51.99
2018-06-29T23:49:53.960Z,52.24
2018-06-29T23:52:22.548Z,52.06
2018-06-29T23:54:51.082Z,52.15
2018-06-29T23:57:20.019Z,52.62
2018-06-29T23:59:48.700Z,52.90
